Terminal Aerodrome Forecast
Issued by NWS

Home | Current Version | Previous Version | Text Only | Print | Product List | Glossary On
Versions: 1 2 3 4 5 6 7 8 9 10 11 12 13 14 15 16 17 18 19
000
FTUS43 KGRB 231140
TAFCWA
TAF
KCWA 231140Z 2312/2412 17003KT 6SM BR SCT002 BKN090
      TEMPO 2312/2314 1SM BR BKN002
     FM231400 17004KT 6SM BR BKN100
     FM231600 20006KT P6SM BKN120
     FM232000 28006KT P6SM OVC050
     FM240200 31009G15KT 6SM -RA OVC026
     FM240300 32013G22KT 4SM -RA OVC014=

USA.gov is the U.S. government's official web portal to all federal, state and local government web resources and services.